Time;durP1;ratioP1;P1;durP2;ratioP2;P2;SDS_P1;SDS_P2;PMS_P1;PMS_P2;Temp;Humidity;BMP_temperature;BMP_pressure;BME280_temperature;BME280_humidity;BME280_pressure;Samples;Min_cycle;Max_cycle;Signal;HPM_P1;HPM_P2
2022/04/18 00:00:41;;;;;;;17.17;10.00;;;8.10;99.90;;;;;;5076472;28;20555;-77
2022/04/18 00:03:08;;;;;;;18.50;10.70;;;8.00;99.90;;;;;;5075323;28;20504;-78
2022/04/18 00:05:35;;;;;;;17.13;10.40;;;8.00;99.90;;;;;;5076519;28;20431;-78
2022/04/18 00:08:04;;;;;;;17.47;10.30;;;8.00;99.90;;;;;;5075801;28;20449;-78
2022/04/18 00:10:33;;;;;;;15.93;10.83;;;7.90;99.90;;;;;;5075984;28;20477;-78
2022/04/18 00:13:00;;;;;;;14.53;9.60;;;7.90;99.90;;;;;;5075453;28;20440;-79
2022/04/18 00:15:27;;;;;;;17.83;10.33;;;7.90;99.90;;;;;;5075553;28;20446;-78
2022/04/18 00:17:54;;;;;;;16.90;10.93;;;7.80;99.90;;;;;;5076439;28;20484;-78
2022/04/18 00:20:21;;;;;;;16.57;9.87;;;7.70;99.90;;;;;;5076052;28;20463;-79
2022/04/18 00:22:47;;;;;;;17.83;10.93;;;7.70;99.90;;;;;;5075757;28;20454;-80
2022/04/18 00:25:16;;;;;;;18.50;11.30;;;7.70;99.90;;;;;;5075435;28;20458;-79
2022/04/18 00:27:43;;;;;;;13.83;9.70;;;7.70;99.90;;;;;;5076279;28;20520;-79
2022/04/18 00:30:10;;;;;;;16.67;11.07;;;7.70;99.90;;;;;;5075286;28;20479;-79
2022/04/18 00:32:37;;;;;;;16.37;9.80;;;7.70;99.90;;;;;;5075465;28;20456;-78
2022/04/18 00:35:06;;;;;;;17.93;10.10;;;7.60;99.90;;;;;;5075682;28;20497;-78
2022/04/18 00:37:36;;;;;;;17.63;10.00;;;7.50;99.90;;;;;;5076987;28;20475;-78
2022/04/18 00:40:03;;;;;;;16.53;9.63;;;7.50;99.90;;;;;;5075911;28;20503;-78
2022/04/18 00:42:31;;;;;;;17.97;10.83;;;7.50;99.90;;;;;;5076557;28;20439;-77
2022/04/18 00:44:58;;;;;;;12.00;8.87;;;7.50;99.90;;;;;;5076007;28;20455;-78
2022/04/18 00:47:25;;;;;;;13.77;8.17;;;7.50;99.90;;;;;;5075272;28;20448;-78
2022/04/18 00:49:52;;;;;;;15.00;9.70;;;7.40;99.90;;;;;;5075251;28;20454;-78
2022/04/18 00:52:19;;;;;;;15.60;9.13;;;7.40;99.90;;;;;;5074011;28;20455;-78
2022/04/18 00:54:48;;;;;;;13.20;8.77;;;7.40;99.90;;;;;;5075173;28;20451;-79
2022/04/18 00:57:14;;;;;;;11.50;7.77;;;7.40;99.90;;;;;;5076456;28;20488;-78
2022/04/18 00:59:44;;;;;;;13.77;9.27;;;7.40;99.90;;;;;;5077695;28;20451;-78
2022/04/18 01:02:13;;;;;;;14.20;8.30;;;7.30;99.90;;;;;;5075926;28;20542;-78
2022/04/18 01:04:40;;;;;;;11.50;7.60;;;7.30;99.90;;;;;;5076055;28;20516;-78
2022/04/18 01:07:07;;;;;;;12.93;8.30;;;7.30;99.90;;;;;;5075835;28;20457;-78
2022/04/18 01:09:34;;;;;;;11.30;7.63;;;7.20;99.90;;;;;;5074796;28;20462;-78
2022/04/18 01:12:01;;;;;;;12.10;8.27;;;7.20;99.90;;;;;;5074184;28;20454;-78
2022/04/18 01:14:28;;;;;;;12.27;8.00;;;7.20;99.90;;;;;;5073463;28;20455;-79
2022/04/18 01:16:56;;;;;;;15.83;9.00;;;7.20;99.90;;;;;;5074315;28;20980;-78
2022/04/18 01:19:23;;;;;;;13.47;8.53;;;7.20;99.90;;;;;;5075027;28;20447;-78
2022/04/18 01:21:51;;;;;;;14.77;8.23;;;7.10;99.90;;;;;;5074397;28;20818;-78
2022/04/18 01:29:57;;;;;;;11.83;7.80;;;7.10;99.90;;;;;;5074749;28;21202;-78
2022/04/18 01:32:24;;;;;;;11.27;7.07;;;7.10;99.90;;;;;;5075674;28;20830;-79
2022/04/18 01:34:51;;;;;;;11.53;6.60;;;7.10;99.90;;;;;;5075167;28;20537;-78
2022/04/18 01:37:19;;;;;;;10.20;6.30;;;7.10;99.90;;;;;;5074521;28;20488;-78
2022/04/18 01:39:46;;;;;;;9.30;5.87;;;7.00;99.90;;;;;;5075399;28;20447;-78
2022/04/18 01:42:12;;;;;;;11.57;6.93;;;7.00;99.90;;;;;;5074615;28;20549;-77
2022/04/18 01:44:39;;;;;;;11.07;6.70;;;7.00;99.90;;;;;;5074206;28;20453;-78
2022/04/18 01:47:06;;;;;;;10.40;6.13;;;6.90;99.90;;;;;;5073957;28;20859;-78
2022/04/18 01:49:33;;;;;;;8.97;6.50;;;6.90;99.90;;;;;;5074507;28;20877;-78
2022/04/18 01:52:00;;;;;;;9.90;6.30;;;6.90;99.90;;;;;;5073211;28;20496;-78
2022/04/18 01:54:28;;;;;;;9.00;5.80;;;6.80;99.90;;;;;;5077372;28;20497;-79
2022/04/18 01:56:54;;;;;;;10.90;7.20;;;6.80;99.90;;;;;;5078078;28;20455;-78
2022/04/18 01:59:21;;;;;;;9.80;6.13;;;6.70;99.90;;;;;;5077896;28;20457;-78
2022/04/18 02:01:49;;;;;;;12.30;5.97;;;6.70;99.90;;;;;;5079310;28;20474;-80
2022/04/18 02:04:15;;;;;;;11.20;5.87;;;6.60;99.90;;;;;;5078227;28;20484;-78
2022/04/18 02:06:42;;;;;;;6.93;5.00;;;6.60;99.90;;;;;;5079362;28;20463;-78
2022/04/18 02:09:09;;;;;;;11.43;6.70;;;6.60;99.90;;;;;;5078924;28;20470;-78
2022/04/18 02:11:37;;;;;;;8.60;5.30;;;6.60;99.90;;;;;;5079139;28;20477;-78
2022/04/18 02:14:04;;;;;;;8.33;5.50;;;6.60;99.90;;;;;;5078089;28;20457;-78
2022/04/18 02:16:31;;;;;;;9.53;5.60;;;6.60;99.90;;;;;;5078069;28;20454;-78
2022/04/18 02:18:58;;;;;;;8.87;5.40;;;6.60;99.90;;;;;;5076827;28;20486;-78
2022/04/18 02:21:25;;;;;;;8.73;5.37;;;6.60;99.90;;;;;;5077254;28;20474;-78
2022/04/18 02:23:51;;;;;;;9.67;5.90;;;6.60;99.90;;;;;;5075908;28;20459;-78
2022/04/18 02:26:18;;;;;;;8.00;6.27;;;6.60;99.90;;;;;;5077627;28;20460;-78
2022/04/18 02:28:46;;;;;;;8.83;5.10;;;6.60;99.90;;;;;;5077987;28;20452;-78
2022/04/18 02:31:13;;;;;;;11.60;6.50;;;6.50;99.90;;;;;;5077487;28;20465;-78
2022/04/18 02:33:40;;;;;;;7.77;5.10;;;6.40;99.90;;;;;;5076738;28;20462;-78
2022/04/18 02:36:06;;;;;;;6.80;4.50;;;6.50;99.90;;;;;;5079629;28;20878;-78
2022/04/18 02:38:33;;;;;;;9.23;5.20;;;6.50;99.90;;;;;;5079274;28;20488;-78
2022/04/18 02:41:00;;;;;;;9.37;5.90;;;6.50;99.90;;;;;;5074684;28;20473;-79
2022/04/18 02:43:27;;;;;;;7.50;5.23;;;6.40;99.90;;;;;;5076749;28;20493;-78
2022/04/18 02:45:55;;;;;;;9.90;5.30;;;6.30;99.90;;;;;;5078994;28;20446;-79
2022/04/18 02:48:22;;;;;;;9.97;4.97;;;6.30;99.90;;;;;;5078635;28;20450;-79
2022/04/18 02:50:48;;;;;;;9.80;4.97;;;6.30;99.90;;;;;;5078713;28;20480;-78
2022/04/18 02:53:15;;;;;;;6.73;4.13;;;6.40;99.90;;;;;;5078031;28;20462;-79
2022/04/18 02:55:42;;;;;;;7.20;5.17;;;6.40;99.90;;;;;;5078364;28;20453;-79
2022/04/18 02:58:09;;;;;;;6.23;3.67;;;6.40;99.90;;;;;;5079165;28;20490;-78
2022/04/18 03:00:36;;;;;;;7.30;4.10;;;6.50;99.90;;;;;;5078445;28;20477;-79
2022/04/18 03:03:04;;;;;;;10.27;3.87;;;6.50;99.90;;;;;;5077950;28;20455;-78
2022/04/18 03:05:31;;;;;;;8.53;3.20;;;6.50;99.90;;;;;;5077063;28;20451;-79
2022/04/18 03:08:01;;;;;;;5.17;3.30;;;6.50;99.90;;;;;;5077793;28;20460;-79
2022/04/18 03:13:12;;;;;;;6.20;3.13;;;6.50;99.90;;;;;;5076377;28;20442;-79
2022/04/18 03:15:39;;;;;;;4.60;2.90;;;6.50;99.90;;;;;;5077419;28;20461;-79
2022/04/18 03:18:07;;;;;;;4.10;2.40;;;6.50;99.90;;;;;;5076680;28;20568;-78
2022/04/18 03:20:34;;;;;;;3.90;2.40;;;6.50;99.90;;;;;;5077863;28;20470;-78
2022/04/18 03:23:01;;;;;;;3.87;2.40;;;6.50;99.90;;;;;;5076582;28;20465;-80
2022/04/18 03:25:28;;;;;;;3.67;2.10;;;6.50;99.90;;;;;;5077476;28;20828;-78
2022/04/18 03:27:54;;;;;;;3.23;2.20;;;6.50;99.90;;;;;;5077309;28;20443;-79
2022/04/18 03:30:21;;;;;;;3.80;2.53;;;6.50;99.90;;;;;;5076529;28;20470;-78
2022/04/18 03:32:48;;;;;;;3.40;2.20;;;6.40;99.90;;;;;;5065813;28;20458;-78
2022/04/18 03:35:16;;;;;;;4.70;2.37;;;6.40;99.90;;;;;;5059551;28;20819;-78
2022/04/18 03:40:27;;;;;;;4.50;2.50;;;6.40;99.90;;;;;;5077051;28;20485;-78
2022/04/18 03:42:54;;;;;;;2.77;1.80;;;6.40;99.90;;;;;;5076639;28;20984;-78
2022/04/18 03:45:20;;;;;;;4.20;2.20;;;6.40;99.90;;;;;;5077017;28;20458;-79
2022/04/18 03:47:47;;;;;;;5.00;3.33;;;6.40;99.90;;;;;;5076627;28;20823;-79
2022/04/18 03:50:15;;;;;;;6.20;4.10;;;6.40;99.90;;;;;;5076015;28;20525;-79
2022/04/18 03:52:42;;;;;;;5.70;3.47;;;6.40;99.90;;;;;;5076915;28;20465;-79
2022/04/18 03:55:11;;;;;;;8.57;3.87;;;6.40;99.90;;;;;;5076960;28;20446;-80
2022/04/18 03:57:38;;;;;;;5.77;3.80;;;6.30;99.90;;;;;;5077119;28;20454;-78
2022/04/18 04:00:06;;;;;;;6.00;3.80;;;6.30;99.90;;;;;;5075990;28;20478;-81
2022/04/18 04:02:33;;;;;;;6.10;3.93;;;6.30;99.90;;;;;;5063805;28;20923;-78
2022/04/18 04:05:00;;;;;;;5.13;3.47;;;6.30;99.90;;;;;;5058745;28;20516;-79
2022/04/18 04:07:28;;;;;;;4.13;2.60;;;6.30;99.90;;;;;;5076108;28;20917;-79
2022/04/18 04:09:55;;;;;;;6.07;2.90;;;6.30;99.90;;;;;;5075815;28;20541;-80
2022/04/18 04:12:23;;;;;;;5.37;3.70;;;6.20;99.90;;;;;;5075595;28;20458;-79
2022/04/18 04:14:52;;;;;;;4.90;2.90;;;6.20;99.90;;;;;;5074486;28;20454;-78
2022/04/18 04:17:19;;;;;;;4.77;3.07;;;6.10;99.90;;;;;;5075004;28;20892;-78
2022/04/18 04:19:45;;;;;;;3.90;2.60;;;6.20;99.90;;;;;;5075534;28;20567;-79
2022/04/18 04:22:12;;;;;;;6.50;3.13;;;6.10;99.90;;;;;;5075502;28;20476;-79
2022/04/18 04:24:40;;;;;;;4.70;2.90;;;6.00;99.90;;;;;;5074866;28;20958;-79
2022/04/18 04:27:07;;;;;;;4.77;2.90;;;6.00;99.90;;;;;;5074657;28;20460;-79
2022/04/18 04:29:34;;;;;;;5.57;3.03;;;5.90;99.90;;;;;;5075516;28;20452;-79
2022/04/18 04:32:01;;;;;;;5.47;3.00;;;5.90;99.90;;;;;;5075302;28;20489;-81
2022/04/18 04:34:28;;;;;;;4.57;2.87;;;5.80;99.90;;;;;;5074509;28;20965;-79
2022/04/18 04:36:54;;;;;;;4.63;2.73;;;5.80;99.90;;;;;;5078724;28;20828;-79
2022/04/18 04:39:21;;;;;;;5.40;3.27;;;5.80;99.90;;;;;;5078328;28;21028;-80
2022/04/18 04:41:49;;;;;;;5.37;3.03;;;5.80;99.90;;;;;;5078343;28;20478;-78
2022/04/18 04:44:16;;;;;;;5.90;3.50;;;5.80;99.90;;;;;;5078199;28;20455;-80
2022/04/18 04:46:45;;;;;;;4.93;2.83;;;5.80;99.90;;;;;;5088697;28;20480;-79
2022/04/18 04:49:12;;;;;;;5.40;3.23;;;5.80;99.90;;;;;;5096051;28;20464;-80
2022/04/18 04:51:39;;;;;;;5.23;2.80;;;5.70;99.90;;;;;;5095091;28;20479;-78
2022/04/18 04:54:06;;;;;;;6.97;3.13;;;5.60;99.90;;;;;;5106603;22;20494;-80
2022/04/18 04:56:33;;;;;;;5.00;2.87;;;5.70;99.90;;;;;;5057750;28;21080;-81
2022/04/18 04:59:03;;;;;;;4.30;2.70;;;5.70;99.90;;;;;;5074591;28;20550;-81
2022/04/18 05:01:30;;;;;;;5.23;2.60;;;5.80;99.90;;;;;;5074294;28;20458;-81
2022/04/18 05:03:56;;;;;;;4.40;2.93;;;5.80;99.90;;;;;;5053519;28;20463;-81
2022/04/18 05:06:23;;;;;;;7.63;3.17;;;5.80;99.90;;;;;;5055215;28;20859;-81
2022/04/18 05:08:50;;;;;;;7.07;4.10;;;5.80;99.90;;;;;;5074061;28;20474;-82
2022/04/18 05:11:17;;;;;;;6.43;3.23;;;5.80;99.90;;;;;;5074574;28;20460;-82
2022/04/18 05:13:43;;;;;;;5.43;3.20;;;5.90;99.90;;;;;;5073574;28;20880;-81
2022/04/18 05:16:12;;;;;;;5.60;3.23;;;5.90;99.90;;;;;;5075317;28;20480;-82
2022/04/18 05:18:39;;;;;;;10.30;4.00;;;5.90;99.90;;;;;;5074982;28;20899;-80
2022/04/18 05:21:06;;;;;;;6.30;3.63;;;6.00;99.90;;;;;;5077537;28;20541;-81
2022/04/18 05:23:33;;;;;;;5.10;3.43;;;6.10;99.90;;;;;;5078142;28;20817;-82
2022/04/18 05:26:00;;;;;;;4.50;3.30;;;6.10;99.90;;;;;;5084779;28;20489;-82
2022/04/18 05:28:27;;;;;;;5.20;3.23;;;6.20;99.90;;;;;;5081579;28;20467;-80
2022/04/18 05:30:53;;;;;;;4.83;3.20;;;6.20;99.90;;;;;;5092870;28;20510;-82
2022/04/18 05:33:23;;;;;;;5.23;3.10;;;6.30;99.90;;;;;;5069734;28;20459;-82
2022/04/18 05:35:50;;;;;;;6.03;3.40;;;6.40;99.90;;;;;;5074226;28;20462;-80
2022/04/18 05:38:17;;;;;;;7.67;3.80;;;6.40;99.90;;;;;;5077475;28;20481;-81
2022/04/18 05:40:44;;;;;;;8.30;3.23;;;6.50;99.90;;;;;;5077334;28;20453;-83
2022/04/18 05:43:11;;;;;;;6.70;3.70;;;6.60;99.90;;;;;;5073819;28;20450;-82
2022/04/18 05:45:39;;;;;;;5.67;4.00;;;6.60;99.90;;;;;;5074681;28;20432;-82
2022/04/18 05:48:06;;;;;;;5.17;3.97;;;6.70;99.90;;;;;;5075483;28;20463;-82
2022/04/18 05:50:34;;;;;;;9.80;4.67;;;6.70;99.90;;;;;;5075387;28;20461;-83
2022/04/18 05:53:01;;;;;;;6.27;3.83;;;6.80;99.90;;;;;;5075022;28;20493;-83
2022/04/18 05:55:35;;;;;;;8.70;4.60;;;6.90;99.90;;;;;;5075728;28;20510;-84
2022/04/18 05:58:02;;;;;;;7.07;3.83;;;7.00;99.90;;;;;;5075250;28;20538;-82
2022/04/18 06:00:29;;;;;;;6.97;3.93;;;7.10;99.90;;;;;;5074591;28;20877;-83
2022/04/18 06:02:57;;;;;;;6.83;3.47;;;7.20;99.90;;;;;;5075135;28;20443;-84
2022/04/18 06:05:24;;;;;;;6.80;3.83;;;7.30;99.90;;;;;;5062584;28;20475;-84
2022/04/18 06:07:53;;;;;;;7.37;4.70;;;7.30;99.90;;;;;;5073527;28;20537;-81
2022/04/18 06:10:19;;;;;;;8.80;4.60;;;7.40;99.90;;;;;;5072238;28;20444;-83
2022/04/18 06:12:46;;;;;;;8.63;5.30;;;7.50;99.90;;;;;;5073789;28;20440;-83
2022/04/18 06:15:16;;;;;;;8.80;5.33;;;7.60;99.90;;;;;;5073001;28;20562;-82
2022/04/18 06:17:43;;;;;;;9.50;5.87;;;7.60;99.90;;;;;;5072673;28;20523;-81
2022/04/18 06:20:10;;;;;;;8.83;5.30;;;7.70;99.90;;;;;;5070536;28;20487;-82
2022/04/18 06:22:37;;;;;;;10.83;6.33;;;7.80;99.90;;;;;;5072129;28;20454;-82
2022/04/18 06:25:07;;;;;;;12.20;7.00;;;7.90;99.90;;;;;;5073248;28;20503;-81
2022/04/18 06:27:33;;;;;;;10.10;7.47;;;7.90;99.90;;;;;;5076291;28;20475;-81
2022/04/18 06:30:00;;;;;;;9.40;6.00;;;8.00;99.90;;;;;;5071719;28;20994;-81
2022/04/18 06:32:28;;;;;;;11.60;6.30;;;8.10;99.90;;;;;;5075909;28;20458;-80
2022/04/18 06:34:55;;;;;;;10.67;6.10;;;8.20;99.90;;;;;;5076729;28;21085;-80
2022/04/18 06:37:22;;;;;;;13.57;6.67;;;8.30;99.90;;;;;;5074760;28;20463;-80
2022/04/18 06:39:49;;;;;;;10.00;6.13;;;8.40;99.90;;;;;;5077248;28;20925;-80
2022/04/18 06:42:17;;;;;;;10.27;5.80;;;8.50;99.90;;;;;;5077118;28;20809;-79
2022/04/18 06:44:44;;;;;;;7.07;4.97;;;8.70;99.90;;;;;;5074567;28;20536;-79
2022/04/18 06:47:10;;;;;;;7.83;3.90;;;8.80;99.90;;;;;;5076724;28;20457;-80
2022/04/18 06:49:37;;;;;;;4.80;3.10;;;8.80;99.90;;;;;;5077566;28;20518;-80
2022/04/18 06:52:05;;;;;;;4.47;3.10;;;9.00;99.90;;;;;;5070787;28;20449;-80
2022/04/18 06:54:32;;;;;;;6.37;2.40;;;9.10;99.90;;;;;;5067554;28;20504;-80
2022/04/18 06:57:01;;;;;;;5.00;3.13;;;9.20;99.90;;;;;;5075169;28;20472;-80
2022/04/18 06:59:30;;;;;;;5.33;3.20;;;9.40;99.90;;;;;;5076060;28;20862;-81
2022/04/18 07:01:58;;;;;;;4.97;3.07;;;9.50;99.90;;;;;;5077133;28;20476;-82
2022/04/18 07:04:25;;;;;;;7.23;3.33;;;9.70;99.90;;;;;;5074394;28;20641;-80
2022/04/18 07:06:52;;;;;;;5.10;3.30;;;9.80;99.90;;;;;;5075402;28;20824;-79
2022/04/18 07:09:19;;;;;;;3.67;2.73;;;10.00;99.90;;;;;;5075538;28;20969;-81
2022/04/18 07:11:46;;;;;;;5.27;3.27;;;10.10;99.90;;;;;;5086815;28;20482;-81
2022/04/18 07:14:13;;;;;;;5.83;3.27;;;10.20;99.90;;;;;;5093133;28;20501;-80
2022/04/18 07:16:41;;;;;;;7.57;3.00;;;10.40;99.90;;;;;;5092620;28;20446;-82
2022/04/18 07:19:09;;;;;;;4.90;3.10;;;10.80;99.90;;;;;;5094602;28;20505;-80
2022/04/18 07:21:36;;;;;;;5.57;3.03;;;11.10;99.90;;;;;;5093085;28;20493;-82
2022/04/18 07:24:03;;;;;;;4.00;2.50;;;11.20;99.90;;;;;;5091916;28;20477;-81
2022/04/18 07:26:29;;;;;;;5.77;3.27;;;11.50;99.90;;;;;;5092196;28;20477;-82
2022/04/18 07:28:56;;;;;;;4.97;2.60;;;11.70;99.90;;;;;;5091034;28;20464;-82
2022/04/18 07:31:23;;;;;;;7.80;2.77;;;12.00;99.90;;;;;;5092920;28;20507;-81
2022/04/18 07:33:51;;;;;;;3.30;2.13;;;12.40;99.90;;;;;;5094328;28;20528;-82
2022/04/18 07:36:18;;;;;;;4.63;2.70;;;12.90;99.90;;;;;;5095027;28;20471;-82
2022/04/18 07:38:51;;;;;;;5.40;3.03;;;13.20;99.90;;;;;;5096788;28;20477;-82
2022/04/18 07:41:19;;;;;;;5.03;2.70;;;13.30;99.90;;;;;;5097546;28;20481;-81
2022/04/18 07:43:46;;;;;;;4.80;3.37;;;13.30;99.90;;;;;;5096004;28;20537;-81
2022/04/18 07:46:15;;;;;;;7.23;3.77;;;13.30;99.90;;;;;;5096487;28;20496;-81
2022/04/18 07:48:42;;;;;;;6.30;4.00;;;13.30;99.90;;;;;;5091896;28;20458;-81
2022/04/18 07:53:55;;;;;;;6.00;4.10;;;13.50;99.90;;;;;;5088742;28;20521;-81
2022/04/18 07:56:21;;;;;;;5.87;3.70;;;13.50;99.90;;;;;;5088109;28;20464;-82
2022/04/18 07:58:50;;;;;;;8.33;3.90;;;13.80;99.90;;;;;;5087070;28;20480;-81
2022/04/18 08:01:17;;;;;;;4.27;2.97;;;14.60;99.90;;;;;;5088483;28;20472;-80
2022/04/18 08:03:44;;;;;;;4.93;2.60;;;15.90;99.90;;;;;;5086226;28;20468;-82
2022/04/18 08:06:12;;;;;;;4.87;3.13;;;17.30;99.90;;;;;;5087695;28;20817;-82
2022/04/18 08:08:39;;;;;;;4.23;2.73;;;18.50;99.90;;;;;;5088076;28;20443;-82
2022/04/18 08:11:11;;;;;;;6.67;2.50;;;20.40;96.80;;;;;;5087295;28;20452;-82
2022/04/18 08:13:38;;;;;;;3.60;2.83;;;22.20;92.40;;;;;;5087822;28;20467;-80
2022/04/18 08:16:05;;;;;;;6.63;3.53;;;23.70;82.90;;;;;;5090698;28;21041;-83
2022/04/18 08:18:36;;;;;;;5.10;2.87;;;24.90;70.20;;;;;;5092179;28;20450;-81
2022/04/18 08:21:03;;;;;;;7.30;3.63;;;24.50;99.90;;;;;;5090067;28;20497;-80
2022/04/18 08:23:31;;;;;;;4.57;3.50;;;24.50;99.90;;;;;;5089438;28;20483;-82
2022/04/18 08:25:58;;;;;;;4.20;3.43;;;25.90;99.90;;;;;;5087998;28;20447;-82
2022/04/18 08:28:32;;;;;;;4.83;3.70;;;26.30;99.90;;;;;;5090735;28;20451;-81
2022/04/18 08:30:59;;;;;;;5.80;3.70;;;26.60;99.90;;;;;;5090227;28;20450;-81
2022/04/18 08:33:28;;;;;;;5.50;3.50;;;27.00;99.90;;;;;;5089560;28;20447;-81
2022/04/18 08:36:07;;;;;;;4.37;3.33;;;28.00;99.90;;;;;;5084234;28;21014;-81
2022/04/18 08:38:35;;;;;;;5.53;3.20;;;27.90;99.90;;;;;;5084552;28;20461;-79
2022/04/18 08:41:05;;;;;;;4.40;3.13;;;27.30;99.90;;;;;;5079164;28;20551;-81
2022/04/18 08:43:32;;;;;;;4.20;2.90;;;27.60;99.90;;;;;;5077617;28;20478;-79
2022/04/18 08:45:59;;;;;;;7.10;3.43;;;27.50;99.90;;;;;;5083896;28;21040;-79
2022/04/18 08:54:00;;;;;;;6.03;4.70;;;28.90;99.90;;;;;;5079688;28;20494;-80
2022/04/18 08:56:27;;;;;;;4.70;3.27;;;28.40;99.90;;;;;;5081704;28;20442;-81
2022/04/18 08:58:54;;;;;;;4.40;2.87;;;27.80;99.90;;;;;;5083795;28;20451;-79
2022/04/18 09:01:21;;;;;;;4.30;2.97;;;28.60;99.90;;;;;;5083463;28;20451;-78
2022/04/18 09:03:48;;;;;;;4.20;3.03;;;28.40;99.90;;;;;;5082888;28;20466;-80
2022/04/18 09:06:15;;;;;;;3.90;2.80;;;28.70;99.90;;;;;;5082740;28;20534;-79
2022/04/18 09:08:47;;;;;;;6.00;3.30;;;28.40;99.90;;;;;;5081357;28;20456;-78
2022/04/18 09:11:27;;;;;;;4.13;3.30;;;29.80;99.90;;;;;;5088113;28;20493;-81
2022/04/18 09:13:59;;;;;;;3.60;2.73;;;29.60;99.90;;;;;;5087556;28;20525;-81
2022/04/18 09:16:30;;;;;;;2.67;2.03;;;29.00;99.90;;;;;;5088396;28;20451;-79
2022/04/18 09:19:05;;;;;;;4.40;2.90;;;30.70;99.90;;;;;;5078078;28;20462;-79
2022/04/18 09:21:32;;;;;;;4.93;3.00;;;31.50;99.90;;;;;;5083808;28;20454;-80
2022/04/18 09:23:59;;;;;;;4.00;3.27;;;31.00;99.90;;;;;;5082190;28;20472;-80
2022/04/18 09:26:27;;;;;;;4.70;2.80;;;30.80;99.90;;;;;;5085148;28;20451;-80
2022/04/18 09:29:05;;;;;;;3.90;2.90;;;31.60;99.90;;;;;;5086888;28;20970;-80
2022/04/18 09:31:40;;;;;;;4.20;2.97;;;31.90;99.90;;;;;;5087056;28;20435;-80
2022/04/18 09:34:08;;;;;;;3.43;2.50;;;32.20;99.90;;;;;;5084673;28;20993;-79
2022/04/18 09:36:35;;;;;;;4.30;2.83;;;31.10;99.90;;;;;;5085116;28;20450;-80
2022/04/18 09:39:02;;;;;;;6.97;4.27;;;32.90;99.90;;;;;;5086105;28;20546;-80
2022/04/18 09:41:31;;;;;;;4.77;3.53;;;31.40;99.90;;;;;;5084653;28;20492;-79
2022/04/18 09:43:59;;;;;;;7.30;3.30;;;31.10;99.90;;;;;;5071396;28;20473;-81
2022/04/18 09:46:26;;;;;;;3.97;3.57;;;29.90;99.90;;;;;;5085725;28;20463;-82
2022/04/18 09:49:00;;;;;;;4.23;3.10;;;32.10;99.90;;;;;;5082565;28;20450;-83
2022/04/18 09:51:30;;;;;;;4.93;3.40;;;33.20;99.90;;;;;;5087857;28;20441;-82
2022/04/18 09:53:58;;;;;;;4.67;3.63;;;33.80;99.90;;;;;;5091222;28;20477;-82
2022/04/18 09:56:27;;;;;;;4.50;3.50;;;33.90;99.90;;;;;;5087486;28;20494;-81
2022/04/18 09:58:58;;;;;;;4.70;3.97;;;33.90;99.90;;;;;;5074110;28;20516;-81
2022/04/18 10:01:25;;;;;;;6.40;4.00;;;32.00;99.90;;;;;;5081389;28;20482;-80
2022/04/18 10:03:53;;;;;;;5.07;3.90;;;31.10;99.90;;;;;;5090061;28;20459;-82
2022/04/18 10:06:20;;;;;;;5.77;3.53;;;32.90;99.90;;;;;;5091121;28;20489;-84
2022/04/18 10:08:47;;;;;;;3.37;2.40;;;32.70;99.90;;;;;;5086390;28;20451;-80
2022/04/18 10:11:14;;;;;;;3.60;2.30;;;33.80;99.90;;;;;;5084904;28;20537;-82
2022/04/18 10:13:41;;;;;;;5.17;2.60;;;34.00;99.90;;;;;;5091788;28;20465;-82
2022/04/18 10:16:09;;;;;;;4.07;2.23;;;34.40;99.90;;;;;;5089461;28;20486;-83
2022/04/18 10:18:44;;;;;;;3.00;2.33;;;35.10;99.90;;;;;;5094086;28;20442;-80
2022/04/18 10:21:27;;;;;;;4.37;2.87;;;35.80;99.90;;;;;;5083639;28;20494;-82
2022/04/18 10:24:19;;;;;;;2.80;2.50;;;35.10;99.90;;;;;;5081337;28;20467;-82
2022/04/18 10:27:26;;;;;;;2.97;2.10;;;33.90;99.90;;;;;;5087773;28;20454;-84
2022/04/18 10:29:54;;;;;;;3.43;2.17;;;35.40;99.90;;;;;;5091589;28;20882;-83
2022/04/18 10:32:25;;;;;;;3.40;2.37;;;35.80;99.90;;;;;;5090374;28;20550;-83
2022/04/18 10:34:52;;;;;;;4.07;2.47;;;35.00;99.90;;;;;;5088862;28;20562;-82
2022/04/18 10:37:24;;;;;;;3.83;2.30;;;35.60;99.90;;;;;;5089633;28;20535;-82
2022/04/18 10:39:59;;;;;;;3.40;2.33;;;35.70;99.90;;;;;;5089976;28;20485;-83
2022/04/18 10:42:31;;;;;;;3.80;2.50;;;36.30;99.90;;;;;;5086232;28;20526;-82
2022/04/18 10:45:03;;;;;;;3.83;2.50;;;37.10;99.90;;;;;;5078650;28;20513;-82
2022/04/18 10:48:04;;;;;;;4.47;2.70;;;37.90;99.90;;;;;;5089829;28;20504;-83
2022/04/18 10:50:35;;;;;;;3.53;2.50;;;37.30;99.90;;;;;;5084042;28;20450;-82
2022/04/18 10:53:18;;;;;;;3.13;2.60;;;36.40;99.90;;;;;;5086961;28;20522;-82
2022/04/18 10:56:13;;;;;;;3.73;2.90;;;36.90;99.90;;;;;;5094887;22;20553;-79
2022/04/18 10:58:44;;;;;;;5.07;2.70;;;37.10;99.90;;;;;;5058202;28;20447;-80
2022/04/18 11:01:11;;;;;;;3.40;3.10;;;37.30;99.90;;;;;;5038587;28;20495;-78
2022/04/18 11:03:46;;;;;;;4.23;3.27;;;37.40;99.90;;;;;;5051405;28;20454;-80
2022/04/18 11:06:44;;;;;;;3.60;2.80;;;37.10;99.90;;;;;;5049367;28;20902;-78
2022/04/18 11:09:13;;;;;;;3.40;2.77;;;37.20;99.90;;;;;;5057674;28;20452;-79
2022/04/18 11:11:43;;;;;;;4.63;3.00;;;37.10;99.90;;;;;;5059162;28;20448;-78
2022/04/18 11:14:19;;;;;;;5.00;3.63;;;36.00;99.90;;;;;;5058265;28;20865;-79
2022/04/18 11:16:55;;;;;;;3.77;3.10;;;36.70;99.90;;;;;;5058480;28;20525;-80
2022/04/18 11:19:26;;;;;;;3.60;2.40;;;36.80;99.90;;;;;;5056323;28;20471;-79
2022/04/18 11:22:07;;;;;;;3.40;2.77;;;37.10;99.90;;;;;;5058631;28;20502;-79
2022/04/18 11:24:36;;;;;;;3.67;2.80;;;36.60;99.90;;;;;;5058036;28;20471;-80
2022/04/18 11:27:06;;;;;;;4.03;3.00;;;37.60;99.90;;;;;;5063150;28;20480;-80
2022/04/18 11:29:33;;;;;;;3.03;2.57;;;37.30;99.90;;;;;;5067222;28;20478;-80
2022/04/18 11:32:00;;;;;;;3.97;2.97;;;37.70;99.90;;;;;;5071359;28;20511;-80
2022/04/18 11:34:30;;;;;;;3.00;2.17;;;37.00;99.90;;;;;;5070359;28;20458;-80
2022/04/18 11:36:58;;;;;;;4.10;3.20;;;37.40;99.90;;;;;;5069737;28;20447;-80
2022/04/18 11:39:26;;;;;;;3.47;2.97;;;37.60;99.90;;;;;;5070927;28;20269;-81
2022/04/18 11:42:02;;;;;;;3.53;2.67;;;37.40;99.90;;;;;;5068675;28;20549;-81
2022/04/18 11:44:38;;;;;;;3.67;2.63;;;38.00;99.90;;;;;;5068688;28;20960;-81
2022/04/18 11:47:09;;;;;;;3.70;2.60;;;38.60;99.90;;;;;;5069091;28;20471;-80
2022/04/18 11:49:38;;;;;;;3.73;2.47;;;37.90;99.90;;;;;;5068276;28;20479;-81
2022/04/18 11:52:05;;;;;;;2.97;2.27;;;37.60;99.90;;;;;;5066159;28;20455;-82
2022/04/18 11:54:32;;;;;;;4.57;3.10;;;37.90;99.90;;;;;;5068321;28;20455;-83
2022/04/18 11:56:59;;;;;;;3.00;2.53;;;38.60;99.90;;;;;;5067659;28;20504;-81
2022/04/18 11:59:28;;;;;;;2.80;2.30;;;38.30;99.90;;;;;;5067517;28;20451;-82
2022/04/18 12:07:26;;;;;;;3.03;2.30;;;39.00;99.90;;;;;;5066188;28;20451;-80
2022/04/18 12:09:53;;;;;;;3.20;2.40;;;39.40;99.90;;;;;;5067906;28;20460;-81
2022/04/18 12:12:28;;;;;;;3.13;2.17;;;37.70;99.90;;;;;;5068990;28;20448;-80
2022/04/18 12:14:55;;;;;;;2.87;2.17;;;38.60;99.90;;;;;;5070713;28;20836;-81
2022/04/18 12:17:22;;;;;;;3.40;2.50;;;38.20;99.90;;;;;;5071829;28;20486;-80
2022/04/18 12:19:52;;;;;;;2.80;2.10;;;39.00;99.90;;;;;;5071978;28;20458;-82
2022/04/18 12:22:22;;;;;;;4.80;2.20;;;39.90;99.90;;;;;;5075506;28;20475;-83
2022/04/18 12:24:49;;;;;;;4.03;2.30;;;39.60;99.90;;;;;;5078313;28;20455;-82
2022/04/18 12:27:17;;;;;;;2.93;2.23;;;39.90;99.90;;;;;;5079119;28;20463;-82
2022/04/18 12:29:45;;;;;;;2.70;2.03;;;39.30;99.90;;;;;;5079030;28;20470;-80
2022/04/18 12:32:26;;;;;;;2.93;2.00;;;39.60;99.90;;;;;;5078892;28;20452;-83
2022/04/18 12:34:54;;;;;;;2.90;2.40;;;38.90;99.90;;;;;;5078353;28;20432;-83
2022/04/18 12:37:26;;;;;;;3.03;2.47;;;37.90;99.90;;;;;;5078852;28;20487;-83
2022/04/18 12:40:13;;;;;;;3.43;2.20;;;37.70;99.90;;;;;;5078536;28;20424;-82
2022/04/18 12:42:40;;;;;;;2.70;2.07;;;36.70;99.90;;;;;;5078260;28;20436;-83
2022/04/18 12:45:08;;;;;;;3.60;2.60;;;37.40;99.90;;;;;;5077270;28;20466;-82
2022/04/18 12:47:35;;;;;;;4.40;2.60;;;38.10;99.90;;;;;;5078218;28;20480;-82
2022/04/18 12:50:10;;;;;;;4.17;2.37;;;38.30;99.90;;;;;;5077883;28;20515;-81
2022/04/18 12:52:47;;;;;;;3.27;2.77;;;39.50;99.90;;;;;;5076462;28;20467;-83
2022/04/18 12:55:14;;;;;;;4.03;2.70;;;37.10;99.90;;;;;;5077063;28;20471;-83
2022/04/18 12:57:41;;;;;;;3.50;2.40;;;36.00;99.90;;;;;;5078188;28;20687;-83
2022/04/18 13:00:14;;;;;;;3.80;2.27;;;36.40;99.90;;;;;;5077606;28;20436;-82
2022/04/18 13:02:41;;;;;;;2.90;2.20;;;37.10;99.90;;;;;;5077925;28;20436;-83
2022/04/18 13:05:09;;;;;;;3.20;2.50;;;35.80;99.90;;;;;;5077003;28;20472;-83
2022/04/18 13:07:40;;;;;;;3.43;1.93;;;36.60;99.90;;;;;;5076229;28;20432;-82
2022/04/18 13:10:08;;;;;;;3.60;1.80;;;36.70;99.90;;;;;;5076212;28;20440;-84
2022/04/18 13:12:35;;;;;;;5.33;2.40;;;36.00;99.90;;;;;;5076791;28;20511;-83
2022/04/18 13:15:05;;;;;;;3.07;1.87;;;36.50;99.90;;;;;;5076199;28;20447;-82
2022/04/18 13:17:35;;;;;;;2.83;1.97;;;36.60;99.90;;;;;;5075381;28;20479;-83
2022/04/18 13:20:06;;;;;;;2.70;2.00;;;37.10;99.90;;;;;;5076363;28;20442;-81
2022/04/18 13:22:35;;;;;;;3.03;2.40;;;37.20;99.90;;;;;;5071390;28;20472;-81